Time;durP1;ratioP1;P1;durP2;ratioP2;P2;SDS_P1;SDS_P2;PMS_P1;PMS_P2;Temp;Humidity;BMP_temperature;BMP_pressure;BME280_temperature;BME280_humidity;BME280_pressure;Samples;Min_cycle;Max_cycle;Signal;HPM_P1;HPM_P2
2022/06/29 00:02:20;;;;;;;2.90;1.70;;;17.60;99.90;;;;;;5068066;28;20324;-76
2022/06/29 00:05:05;;;;;;;2.40;1.83;;;17.50;99.90;;;;;;5069273;28;20664;-76
2022/06/29 00:07:52;;;;;;;2.03;1.87;;;17.50;99.90;;;;;;5059835;28;20194;-76
2022/06/29 00:10:37;;;;;;;2.90;2.07;;;17.40;99.90;;;;;;5067601;28;20198;-76
2022/06/29 00:13:21;;;;;;;3.03;2.03;;;17.40;99.90;;;;;;5061845;28;20213;-74
2022/06/29 00:16:06;;;;;;;2.90;2.17;;;17.40;99.90;;;;;;5057588;28;20194;-74
2022/06/29 00:18:50;;;;;;;4.27;1.93;;;17.40;99.90;;;;;;5067055;28;20206;-74
2022/06/29 00:21:34;;;;;;;3.13;2.20;;;17.30;99.90;;;;;;5069199;28;20282;-74
2022/06/29 00:24:18;;;;;;;2.77;2.13;;;17.30;99.90;;;;;;5061947;28;20275;-74
2022/06/29 00:27:03;;;;;;;3.57;2.30;;;17.30;99.90;;;;;;5069960;28;20221;-74
2022/06/29 00:29:47;;;;;;;3.00;2.03;;;17.30;99.90;;;;;;5067920;28;20240;-74
2022/06/29 00:32:32;;;;;;;5.00;2.10;;;17.20;99.90;;;;;;5065483;28;20257;-74
2022/06/29 00:35:16;;;;;;;4.83;2.00;;;17.20;99.90;;;;;;5065442;28;20320;-74
2022/06/29 00:38:00;;;;;;;4.50;2.10;;;17.20;99.90;;;;;;5067491;28;20194;-74
2022/06/29 00:40:44;;;;;;;3.10;2.00;;;17.20;99.90;;;;;;5065776;28;20190;-74
2022/06/29 00:43:29;;;;;;;5.47;2.40;;;17.10;99.90;;;;;;5065141;28;20241;-74
2022/06/29 00:46:13;;;;;;;2.03;1.83;;;17.10;99.90;;;;;;5069039;28;20186;-74
2022/06/29 00:48:57;;;;;;;3.70;2.00;;;17.10;99.90;;;;;;5064955;28;20190;-74
2022/06/29 00:51:45;;;;;;;2.30;2.10;;;17.00;99.90;;;;;;5066663;28;20695;-74
2022/06/29 00:54:36;;;;;;;2.47;1.97;;;17.00;99.90;;;;;;5063318;28;20255;-74
2022/06/29 00:57:28;;;;;;;2.00;1.90;;;17.00;99.90;;;;;;5067254;28;20678;-74
2022/06/29 01:00:13;;;;;;;6.47;2.53;;;17.00;99.90;;;;;;5062300;28;20746;-74
2022/06/29 01:03:00;;;;;;;3.00;2.20;;;16.90;99.90;;;;;;5063166;28;20244;-74
2022/06/29 01:05:44;;;;;;;4.50;1.97;;;16.90;99.90;;;;;;5065452;28;20210;-74
2022/06/29 01:08:28;;;;;;;3.00;2.20;;;16.90;99.90;;;;;;5061600;28;20191;-74
2022/06/29 01:11:12;;;;;;;4.83;2.30;;;16.90;99.90;;;;;;5063763;28;20684;-74
2022/06/29 01:13:56;;;;;;;3.63;2.40;;;16.90;99.90;;;;;;5066215;28;20233;-74
2022/06/29 01:16:41;;;;;;;2.80;2.10;;;16.80;99.90;;;;;;5055687;28;20210;-75
2022/06/29 01:19:25;;;;;;;4.40;2.27;;;16.80;99.90;;;;;;5065422;28;20186;-74
2022/06/29 01:22:14;;;;;;;5.03;2.50;;;16.70;99.90;;;;;;5065228;28;20213;-75
2022/06/29 01:24:58;;;;;;;5.30;2.13;;;16.70;99.90;;;;;;5066007;28;20186;-74
2022/06/29 01:27:42;;;;;;;2.53;2.33;;;16.60;99.90;;;;;;5067768;28;20228;-74
2022/06/29 01:30:26;;;;;;;4.43;2.90;;;16.60;99.90;;;;;;5081406;28;20201;-75
2022/06/29 01:33:11;;;;;;;2.73;2.53;;;16.50;99.90;;;;;;5065793;28;20229;-74
2022/06/29 01:35:55;;;;;;;3.90;2.70;;;16.50;99.90;;;;;;5063972;28;20194;-74
2022/06/29 01:38:40;;;;;;;3.03;2.47;;;16.50;99.90;;;;;;5065745;28;20673;-74
2022/06/29 01:41:24;;;;;;;2.47;2.27;;;16.40;99.90;;;;;;5065593;28;20278;-74
2022/06/29 01:44:09;;;;;;;2.37;2.23;;;16.40;99.90;;;;;;5068772;28;20217;-74
2022/06/29 01:46:53;;;;;;;3.23;2.40;;;16.40;99.90;;;;;;5067683;28;20181;-75
2022/06/29 01:49:37;;;;;;;6.60;2.80;;;16.30;99.90;;;;;;5066700;28;20240;-75
2022/06/29 01:52:21;;;;;;;5.93;2.80;;;16.30;99.90;;;;;;5065584;28;20197;-75
2022/06/29 01:55:05;;;;;;;3.37;2.60;;;16.30;99.90;;;;;;5066689;28;20206;-74
2022/06/29 01:57:50;;;;;;;3.97;2.63;;;16.30;99.90;;;;;;5070172;28;20198;-75
2022/06/29 02:00:34;;;;;;;4.67;3.17;;;16.20;99.90;;;;;;5066871;28;20260;-74
2022/06/29 02:03:18;;;;;;;5.17;2.80;;;16.20;99.90;;;;;;5064657;28;20268;-74
2022/06/29 02:06:02;;;;;;;5.47;2.80;;;16.20;99.90;;;;;;5065377;28;20260;-75
2022/06/29 02:08:47;;;;;;;5.77;2.90;;;16.20;99.90;;;;;;5068410;28;20236;-75
2022/06/29 02:11:32;;;;;;;3.07;2.87;;;16.20;99.90;;;;;;5060548;28;20203;-75
2022/06/29 02:14:16;;;;;;;2.87;2.67;;;16.20;99.90;;;;;;5063112;28;20621;-75
2022/06/29 02:17:00;;;;;;;4.97;2.87;;;16.20;99.90;;;;;;5066655;28;20189;-75
2022/06/29 02:19:44;;;;;;;3.40;3.00;;;16.20;99.90;;;;;;5063044;28;20183;-76
2022/06/29 02:22:28;;;;;;;7.60;2.93;;;16.10;99.90;;;;;;5067029;28;20276;-75
2022/06/29 02:25:12;;;;;;;5.43;3.27;;;16.10;99.90;;;;;;5068394;28;20700;-75
2022/06/29 02:27:56;;;;;;;5.40;3.63;;;16.10;99.90;;;;;;5068010;28;20177;-74
2022/06/29 02:36:46;;;;;;;3.27;3.07;;;16.00;99.90;;;;;;5071887;28;20198;-74
2022/06/29 02:39:30;;;;;;;4.27;3.40;;;16.00;99.90;;;;;;5068734;28;20193;-75
2022/06/29 02:42:15;;;;;;;4.10;3.20;;;16.00;99.90;;;;;;5066443;28;20297;-75
2022/06/29 02:44:59;;;;;;;3.43;3.17;;;16.00;99.90;;;;;;5067148;28;20240;-74
2022/06/29 02:47:43;;;;;;;4.80;3.67;;;16.00;99.90;;;;;;5069269;28;20250;-75
2022/06/29 02:50:27;;;;;;;3.40;3.10;;;15.90;99.90;;;;;;5064532;28;20186;-74
2022/06/29 02:53:12;;;;;;;4.87;3.40;;;15.90;99.90;;;;;;5068105;28;20217;-75
2022/06/29 02:55:56;;;;;;;4.27;3.10;;;15.90;99.90;;;;;;5067058;28;20214;-75
2022/06/29 02:58:40;;;;;;;6.23;3.10;;;15.90;99.90;;;;;;5061300;28;20186;-74
2022/06/29 03:01:24;;;;;;;5.73;3.53;;;15.90;99.90;;;;;;5063151;28;20225;-76
2022/06/29 03:04:08;;;;;;;6.27;3.10;;;15.80;99.90;;;;;;5063535;28;20284;-75
2022/06/29 03:06:52;;;;;;;6.83;3.37;;;15.80;99.90;;;;;;5065644;28;20347;-75
2022/06/29 03:09:36;;;;;;;4.60;3.70;;;15.80;99.90;;;;;;5068489;28;20208;-74
2022/06/29 03:12:21;;;;;;;5.83;3.33;;;15.80;99.90;;;;;;5063436;28;20182;-74
2022/06/29 03:15:05;;;;;;;6.07;3.90;;;15.70;99.90;;;;;;5066291;28;20190;-74
2022/06/29 03:17:50;;;;;;;3.50;3.20;;;15.70;99.90;;;;;;5069313;28;20244;-74
2022/06/29 03:20:34;;;;;;;4.27;3.17;;;15.70;99.90;;;;;;5067004;28;20264;-75
2022/06/29 03:23:18;;;;;;;4.07;3.60;;;15.70;99.90;;;;;;5064790;28;20245;-74
2022/06/29 03:26:02;;;;;;;3.53;3.23;;;15.70;99.90;;;;;;5066750;28;20221;-74
2022/06/29 03:28:48;;;;;;;3.13;2.93;;;15.70;99.90;;;;;;5062903;28;20193;-74
2022/06/29 03:31:32;;;;;;;5.57;3.40;;;15.70;99.90;;;;;;5068948;28;20241;-74
2022/06/29 03:34:16;;;;;;;7.07;3.03;;;15.70;99.90;;;;;;5068366;28;20264;-75
2022/06/29 03:37:00;;;;;;;6.67;2.90;;;15.70;99.90;;;;;;5068120;28;20194;-74
2022/06/29 03:39:44;;;;;;;4.37;3.03;;;15.70;99.90;;;;;;5062708;28;20187;-74
2022/06/29 03:42:29;;;;;;;3.37;2.77;;;15.70;99.90;;;;;;5067758;28;20253;-75
2022/06/29 03:45:13;;;;;;;4.27;3.20;;;15.70;99.90;;;;;;5064864;28;20233;-75
2022/06/29 03:47:57;;;;;;;3.40;2.97;;;15.70;99.90;;;;;;5082104;28;20274;-74
2022/06/29 03:50:41;;;;;;;6.63;2.87;;;15.70;99.90;;;;;;5065275;28;20221;-74
2022/06/29 03:53:25;;;;;;;3.07;2.53;;;15.70;99.90;;;;;;5059316;28;20740;-76
2022/06/29 03:56:09;;;;;;;5.10;2.83;;;15.70;99.90;;;;;;5062273;28;20256;-76
2022/06/29 03:58:54;;;;;;;4.87;2.80;;;15.70;99.90;;;;;;5071272;28;20239;-75
2022/06/29 04:01:38;;;;;;;4.93;2.80;;;15.70;99.90;;;;;;5069571;28;20213;-76
2022/06/29 04:04:22;;;;;;;3.53;2.47;;;15.70;99.90;;;;;;5068290;28;20281;-76
2022/06/29 04:07:06;;;;;;;4.57;3.27;;;15.70;99.90;;;;;;5065227;28;20249;-76
2022/06/29 04:09:59;;;;;;;3.33;2.40;;;15.70;99.90;;;;;;5062250;28;20201;-76
2022/06/29 04:12:43;;;;;;;4.77;2.90;;;15.70;99.90;;;;;;5075037;28;20216;-76
2022/06/29 04:15:27;;;;;;;3.70;2.80;;;15.70;99.90;;;;;;5077862;28;20190;-76
2022/06/29 04:18:11;;;;;;;4.87;3.20;;;15.70;99.90;;;;;;5069930;28;20236;-75
2022/06/29 04:21:07;;;;;;;4.13;2.70;;;15.80;99.90;;;;;;5063586;28;20240;-76
2022/06/29 04:23:52;;;;;;;4.93;2.70;;;15.80;99.90;;;;;;5085915;28;20229;-76
2022/06/29 04:26:36;;;;;;;3.27;2.80;;;15.80;99.90;;;;;;5072241;28;20199;-76
2022/06/29 04:29:21;;;;;;;4.30;2.60;;;15.80;99.90;;;;;;5082899;28;20247;-76
2022/06/29 04:32:06;;;;;;;4.10;2.83;;;15.80;99.90;;;;;;5065090;28;20244;-76
2022/06/29 04:34:50;;;;;;;3.97;2.80;;;15.90;99.90;;;;;;5063372;28;20210;-76
2022/06/29 04:37:34;;;;;;;3.53;2.83;;;15.90;99.90;;;;;;5061163;28;20279;-76
2022/06/29 04:40:18;;;;;;;4.27;2.47;;;15.90;99.90;;;;;;5070299;28;20193;-76
2022/06/29 04:43:02;;;;;;;3.60;2.80;;;15.90;99.90;;;;;;5071634;28;20221;-76
2022/06/29 04:49:00;;;;;;;3.93;2.60;;;15.90;99.90;;;;;;5065459;28;20228;-76
2022/06/29 04:51:44;;;;;;;3.03;2.73;;;15.90;99.90;;;;;;5066709;28;20245;-76
2022/06/29 04:54:28;;;;;;;5.60;3.03;;;15.90;99.90;;;;;;5058145;28;20218;-77
2022/06/29 04:57:13;;;;;;;5.47;2.97;;;15.90;99.90;;;;;;5069717;28;20315;-76
2022/06/29 04:59:57;;;;;;;2.93;2.73;;;16.00;99.90;;;;;;5073376;28;20214;-76
2022/06/29 05:02:41;;;;;;;3.03;2.70;;;15.90;99.90;;;;;;5060882;28;20217;-77
2022/06/29 05:05:25;;;;;;;4.23;2.77;;;15.90;99.90;;;;;;5065721;28;20180;-77
2022/06/29 05:08:09;;;;;;;3.50;2.97;;;16.00;99.90;;;;;;5066314;28;20201;-77
2022/06/29 05:10:53;;;;;;;3.57;2.80;;;16.00;99.90;;;;;;5058237;28;20183;-77
2022/06/29 05:13:37;;;;;;;4.53;2.90;;;16.00;99.90;;;;;;5058415;28;20250;-77
2022/06/29 05:16:21;;;;;;;4.03;2.77;;;16.10;99.90;;;;;;5056366;28;20262;-77
2022/06/29 05:19:05;;;;;;;3.57;2.70;;;16.10;99.90;;;;;;5063832;28;20195;-77
2022/06/29 05:21:50;;;;;;;4.90;3.30;;;16.10;99.90;;;;;;5060884;28;20274;-77
2022/06/29 05:24:34;;;;;;;3.60;2.93;;;16.10;99.90;;;;;;5069524;28;20263;-78
2022/06/29 05:27:18;;;;;;;5.70;2.80;;;16.00;99.90;;;;;;5066664;28;20240;-75
2022/06/29 05:30:03;;;;;;;5.90;3.03;;;16.10;99.90;;;;;;5068087;28;20383;-78
2022/06/29 05:32:47;;;;;;;3.97;3.17;;;16.10;99.90;;;;;;5065621;28;20206;-78
2022/06/29 05:35:33;;;;;;;5.27;3.07;;;16.10;99.90;;;;;;5063843;28;20186;-77
2022/06/29 05:38:18;;;;;;;6.90;2.70;;;16.10;99.90;;;;;;5065656;28;20205;-77
2022/06/29 05:41:03;;;;;;;6.40;2.67;;;16.20;99.90;;;;;;5056108;28;20189;-76
2022/06/29 05:43:51;;;;;;;3.63;2.60;;;16.20;99.90;;;;;;5068350;28;20229;-77
2022/06/29 05:46:35;;;;;;;6.73;3.10;;;16.30;99.90;;;;;;5067180;28;20297;-77
2022/06/29 05:49:19;;;;;;;3.20;2.90;;;16.30;99.90;;;;;;5069132;28;20186;-77
2022/06/29 05:52:04;;;;;;;5.80;2.93;;;16.30;99.90;;;;;;5067948;28;20190;-78
2022/06/29 05:54:48;;;;;;;6.90;2.87;;;16.40;99.90;;;;;;5068845;28;20209;-77
2022/06/29 05:57:34;;;;;;;3.67;3.10;;;16.40;99.90;;;;;;5069116;28;20186;-77
2022/06/29 06:00:19;;;;;;;3.63;3.07;;;16.40;99.90;;;;;;5079170;28;20248;-78
2022/06/29 06:03:03;;;;;;;4.37;3.27;;;16.40;99.90;;;;;;5067347;28;20310;-78
2022/06/29 06:05:48;;;;;;;5.30;3.20;;;16.40;99.90;;;;;;5063440;28;20263;-79
2022/06/29 06:08:32;;;;;;;6.83;3.60;;;16.50;99.90;;;;;;5071318;28;20251;-77
2022/06/29 06:11:16;;;;;;;5.20;3.50;;;16.50;99.90;;;;;;5068815;28;20233;-79
2022/06/29 06:14:00;;;;;;;6.47;3.10;;;16.60;99.90;;;;;;5071957;28;20256;-78
2022/06/29 06:16:44;;;;;;;4.70;3.10;;;16.70;99.90;;;;;;5073783;28;20669;-78
2022/06/29 06:19:29;;;;;;;8.20;3.30;;;16.70;99.90;;;;;;5068036;28;20229;-78
2022/06/29 06:22:13;;;;;;;4.60;3.57;;;16.80;99.90;;;;;;5062767;28;20214;-78
2022/06/29 06:24:58;;;;;;;5.77;3.37;;;16.80;99.90;;;;;;5070676;28;20186;-78
2022/06/29 06:27:42;;;;;;;3.93;2.83;;;16.90;99.90;;;;;;5062509;28;20244;-78
2022/06/29 06:30:27;;;;;;;5.63;3.23;;;17.00;99.90;;;;;;5073934;28;20267;-78
2022/06/29 06:33:12;;;;;;;4.13;2.90;;;17.00;99.90;;;;;;5072677;28;20226;-79
2022/06/29 06:35:56;;;;;;;3.83;3.33;;;17.10;99.90;;;;;;5070933;28;20185;-79
2022/06/29 06:38:41;;;;;;;3.87;2.73;;;17.20;99.90;;;;;;5065914;28;20193;-79
2022/06/29 06:41:25;;;;;;;6.83;3.27;;;17.30;99.90;;;;;;5071917;28;20186;-78
2022/06/29 06:44:09;;;;;;;5.40;2.90;;;17.40;99.90;;;;;;5069194;28;20237;-77
2022/06/29 06:46:53;;;;;;;7.30;3.00;;;17.50;99.90;;;;;;5068568;28;20203;-79
2022/06/29 06:49:38;;;;;;;4.03;2.53;;;17.60;99.90;;;;;;5069438;28;20185;-76
2022/06/29 06:52:22;;;;;;;3.07;2.67;;;17.80;99.90;;;;;;5069590;28;20270;-78
2022/06/29 06:55:07;;;;;;;2.80;2.50;;;18.00;99.90;;;;;;5070142;28;20213;-76
2022/06/29 06:57:51;;;;;;;3.80;2.37;;;18.10;99.90;;;;;;5074156;28;20190;-79
2022/06/29 07:00:35;;;;;;;5.30;2.80;;;18.20;99.90;;;;;;5070142;28;20190;-80
2022/06/29 07:03:19;;;;;;;5.13;2.60;;;18.40;99.90;;;;;;5076288;28;20277;-78
2022/06/29 07:06:09;;;;;;;3.10;2.80;;;18.50;99.90;;;;;;5069326;28;20193;-78
2022/06/29 07:08:54;;;;;;;3.57;2.60;;;18.70;99.90;;;;;;5065850;28;20255;-77
2022/06/29 07:11:39;;;;;;;4.17;2.97;;;18.70;99.90;;;;;;5065381;28;20191;-79
2022/06/29 07:14:23;;;;;;;4.50;2.70;;;18.70;99.90;;;;;;5069809;28;20276;-78
2022/06/29 07:17:07;;;;;;;2.83;2.63;;;18.70;99.90;;;;;;5066530;28;20190;-77
2022/06/29 07:19:52;;;;;;;4.90;3.00;;;18.80;99.90;;;;;;5068342;28;20193;-77
2022/06/29 07:22:36;;;;;;;3.22;2.58;;;18.90;99.90;;;;;;5065478;28;20221;-77
2022/06/29 07:25:20;;;;;;;7.60;2.65;;;19.00;99.90;;;;;;5065286;28;20673;-78
2022/06/29 07:28:05;;;;;;;3.20;2.90;;;19.10;99.90;;;;;;5068363;28;20198;-77
2022/06/29 07:30:51;;;;;;;2.92;2.35;;;19.20;99.90;;;;;;5071911;28;20224;-77
2022/06/29 07:33:36;;;;;;;7.00;3.13;;;19.30;99.90;;;;;;5067785;28;20209;-78
2022/06/29 07:36:20;;;;;;;3.45;2.75;;;19.30;99.90;;;;;;5060379;28;20213;-76
2022/06/29 07:39:05;;;;;;;3.25;2.92;;;19.40;99.90;;;;;;5065773;28;20226;-77
2022/06/29 07:41:50;;;;;;;5.25;2.85;;;19.60;99.90;;;;;;5075480;28;20205;-78
2022/06/29 07:44:34;;;;;;;2.83;2.53;;;19.70;99.90;;;;;;5068336;28;20224;-77
2022/06/29 07:47:18;;;;;;;3.67;2.70;;;19.80;99.90;;;;;;5066973;28;20185;-78
2022/06/29 07:50:03;;;;;;;3.47;2.85;;;19.90;99.90;;;;;;5069293;28;20194;-78
2022/06/29 07:52:47;;;;;;;3.20;2.90;;;20.00;99.90;;;;;;5063822;28;20253;-82
2022/06/29 07:55:31;;;;;;;3.92;2.55;;;20.00;99.90;;;;;;5062341;28;20306;-79
2022/06/29 07:58:16;;;;;;;4.25;2.92;;;20.10;99.90;;;;;;5063615;28;20197;-78
2022/06/29 08:01:00;;;;;;;2.70;2.50;;;20.20;99.90;;;;;;5064453;28;20270;-78
2022/06/29 08:03:44;;;;;;;2.70;2.50;;;20.30;99.90;;;;;;5074732;28;20272;-78
2022/06/29 08:06:28;;;;;;;3.22;2.30;;;20.40;99.90;;;;;;5061584;28;20676;-77
2022/06/29 08:09:13;;;;;;;5.95;3.05;;;20.60;99.90;;;;;;5063442;28;20224;-77
2022/06/29 08:11:57;;;;;;;4.78;2.20;;;20.70;99.90;;;;;;5064869;28;20186;-77
2022/06/29 08:14:41;;;;;;;2.78;2.00;;;20.90;99.90;;;;;;5069918;28;20190;-76
2022/06/29 08:17:26;;;;;;;3.45;2.40;;;21.10;99.90;;;;;;5063266;28;20308;-77
2022/06/29 08:20:10;;;;;;;2.65;2.33;;;21.20;99.90;;;;;;5064035;28;20198;-77
2022/06/29 08:22:55;;;;;;;4.10;2.20;;;21.30;99.90;;;;;;5068233;28;20268;-77
2022/06/29 08:25:39;;;;;;;2.78;2.30;;;21.50;99.90;;;;;;5067614;28;20306;-78
2022/06/29 08:28:27;;;;;;;5.28;2.30;;;21.60;99.90;;;;;;5069730;28;20244;-79
2022/06/29 08:31:11;;;;;;;2.70;2.10;;;21.80;99.90;;;;;;5066258;28;20260;-78
2022/06/29 08:33:55;;;;;;;2.60;2.25;;;21.90;99.90;;;;;;5066989;28;20701;-77
2022/06/29 08:36:40;;;;;;;3.00;2.45;;;22.00;99.90;;;;;;5067994;28;20565;-82
2022/06/29 08:39:24;;;;;;;2.38;2.17;;;22.10;99.90;;;;;;5067192;28;20190;-76
2022/06/29 08:42:08;;;;;;;2.33;2.13;;;22.30;99.90;;;;;;5058487;28;20233;-79
2022/06/29 08:44:53;;;;;;;5.38;2.40;;;22.40;99.90;;;;;;5059827;28;20197;-80
2022/06/29 08:47:37;;;;;;;2.78;2.58;;;22.60;99.90;;;;;;5058746;28;20186;-78
2022/06/29 08:50:21;;;;;;;2.70;2.50;;;22.70;99.90;;;;;;5059805;28;20189;-79
2022/06/29 08:53:07;;;;;;;3.20;2.38;;;22.90;99.90;;;;;;5060418;28;20298;-78
2022/06/29 08:55:55;;;;;;;2.90;2.70;;;23.00;99.90;;;;;;5072314;28;20213;-78
2022/06/29 08:58:41;;;;;;;4.10;2.80;;;23.00;99.90;;;;;;5059431;28;20205;-77
2022/06/29 09:01:25;;;;;;;4.30;2.55;;;23.10;99.90;;;;;;5058188;28;20198;-80
2022/06/29 09:04:10;;;;;;;3.78;2.97;;;23.10;99.90;;;;;;5060394;28;20237;-79
2022/06/29 09:06:56;;;;;;;3.85;3.00;;;23.20;99.90;;;;;;5060527;28;20236;-79
2022/06/29 09:10:02;;;;;;;3.72;2.53;;;23.30;99.90;;;;;;5059658;28;20197;-77
2022/06/29 09:12:52;;;;;;;2.90;2.70;;;23.40;99.90;;;;;;5060985;28;20299;-82
2022/06/29 09:15:38;;;;;;;5.55;2.90;;;23.50;99.90;;;;;;5057928;28;20198;-78
2022/06/29 09:18:31;;;;;;;6.90;2.80;;;23.60;99.90;;;;;;5061626;28;20221;-81
2022/06/29 09:21:15;;;;;;;3.47;2.72;;;23.70;99.90;;;;;;5058912;28;20198;-78
2022/06/29 09:23:59;;;;;;;4.72;2.85;;;23.80;99.90;;;;;;5059165;28;20228;-77
2022/06/29 09:26:47;;;;;;;5.97;3.40;;;23.90;99.90;;;;;;5055250;28;20214;-78
2022/06/29 09:29:35;;;;;;;3.78;2.72;;;23.90;99.90;;;;;;5056487;28;20245;-77
2022/06/29 09:32:20;;;;;;;7.30;2.70;;;23.90;99.90;;;;;;5059409;28;20828;-79
2022/06/29 09:35:12;;;;;;;5.03;2.50;;;23.90;99.90;;;;;;5085308;28;20232;-78
2022/06/29 09:38:19;;;;;;;2.97;2.70;;;23.90;99.90;;;;;;5059662;28;20198;-77
2022/06/29 09:41:16;;;;;;;6.43;2.50;;;24.00;99.90;;;;;;5059227;28;20244;-78
2022/06/29 09:44:00;;;;;;;4.10;2.78;;;24.00;99.90;;;;;;5057995;28;20318;-78
2022/06/29 09:46:44;;;;;;;3.15;2.85;;;24.00;99.90;;;;;;5060591;28;20271;-78
2022/06/29 09:49:29;;;;;;;5.47;2.65;;;24.10;99.90;;;;;;5058411;28;20263;-78
2022/06/29 09:52:17;;;;;;;3.42;3.08;;;24.10;99.90;;;;;;5059364;28;20197;-78
2022/06/29 09:55:01;;;;;;;4.05;2.88;;;24.20;99.90;;;;;;5059322;28;20248;-79
2022/06/29 09:57:48;;;;;;;4.10;2.92;;;24.30;99.90;;;;;;5056784;28;20202;-78
2022/06/29 10:03:36;;;;;;;5.18;2.78;;;24.30;99.90;;;;;;5059196;28;20672;-78
2022/06/29 10:06:22;;;;;;;3.28;2.85;;;24.40;99.90;;;;;;5063943;28;20205;-80
2022/06/29 10:09:06;;;;;;;3.25;2.95;;;24.50;99.90;;;;;;5057949;28;20197;-79
2022/06/29 10:15:15;;;;;;;5.93;3.13;;;24.70;99.90;;;;;;5060391;28;20210;-79
2022/06/29 10:18:18;;;;;;;11.68;2.97;;;24.80;99.90;;;;;;5056564;28;20179;-79
2022/06/29 10:21:16;;;;;;;5.32;3.13;;;24.80;99.90;;;;;;5062927;28;20181;-77
2022/06/29 10:24:01;;;;;;;4.35;2.88;;;24.80;99.90;;;;;;5058066;28;20264;-77
2022/06/29 10:26:47;;;;;;;7.28;3.38;;;24.90;99.90;;;;;;5064531;28;20194;-77
2022/06/29 10:29:31;;;;;;;3.28;2.97;;;25.00;99.90;;;;;;5057975;28;20190;-76
2022/06/29 10:32:16;;;;;;;7.10;3.25;;;25.10;99.90;;;;;;5059705;28;20206;-77
2022/06/29 10:35:07;;;;;;;5.07;3.05;;;25.20;99.90;;;;;;5057304;28;20198;-79
2022/06/29 10:37:53;;;;;;;3.28;2.92;;;25.40;99.90;;;;;;5090144;28;20649;-78
2022/06/29 10:40:37;;;;;;;5.30;3.20;;;25.40;99.90;;;;;;5058622;28;20326;-78
2022/06/29 10:43:21;;;;;;;3.75;3.08;;;25.50;99.90;;;;;;5062605;28;20226;-78
2022/06/29 10:46:05;;;;;;;3.13;2.83;;;25.60;99.90;;;;;;5063157;28;20232;-78
2022/06/29 10:49:18;;;;;;;4.05;3.42;;;25.50;99.90;;;;;;5061547;28;20638;-78
2022/06/29 10:52:03;;;;;;;4.30;2.80;;;25.50;99.90;;;;;;5059772;28;20193;-78
2022/06/29 10:54:47;;;;;;;6.30;2.63;;;25.40;99.90;;;;;;5062955;28;20213;-77
2022/06/29 10:57:33;;;;;;;5.53;2.85;;;25.30;99.90;;;;;;5061964;28;20713;-78
2022/06/29 11:00:21;;;;;;;6.05;2.85;;;25.30;99.90;;;;;;5062807;28;20240;-78
2022/06/29 11:03:08;;;;;;;4.40;2.67;;;25.30;99.90;;;;;;5060994;28;20225;-78
2022/06/29 11:12:05;;;;;;;2.78;2.53;;;25.60;99.90;;;;;;5062428;28;20658;-78
2022/06/29 11:18:02;;;;;;;4.95;2.63;;;25.80;99.90;;;;;;5059882;28;20186;-79
2022/06/29 11:20:49;;;;;;;2.97;2.47;;;25.90;99.90;;;;;;5059234;28;20272;-77
2022/06/29 11:23:34;;;;;;;4.32;2.80;;;25.90;99.90;;;;;;5062087;28;20272;-79
2022/06/29 11:26:22;;;;;;;5.65;2.75;;;25.90;99.90;;;;;;5055675;28;20189;-79
2022/06/29 11:29:07;;;;;;;5.10;2.70;;;26.00;99.90;;;;;;5056652;28;20209;-79
2022/06/29 11:32:01;;;;;;;4.40;2.53;;;26.10;99.90;;;;;;5061461;28;20232;-80
2022/06/29 11:34:45;;;;;;;3.35;2.45;;;26.30;99.90;;;;;;5059166;28;20198;-79
2022/06/29 11:37:29;;;;;;;2.78;2.58;;;26.30;99.90;;;;;;5057268;28;20287;-79
2022/06/29 11:40:13;;;;;;;4.65;2.55;;;26.40;99.90;;;;;;5059081;28;20691;-77
2022/06/29 11:43:10;;;;;;;6.53;2.75;;;26.40;99.90;;;;;;5058864;28;20225;-81
2022/06/29 11:45:57;;;;;;;3.47;2.55;;;26.40;99.90;;;;;;5060341;28;20213;-80
2022/06/29 11:51:56;;;;;;;7.03;3.03;;;26.60;99.90;;;;;;5062523;28;20198;-82
2022/06/29 11:54:49;;;;;;;5.97;3.10;;;26.60;99.90;;;;;;5061417;28;20210;-82
2022/06/29 11:57:33;;;;;;;4.45;2.67;;;26.70;99.90;;;;;;5060951;28;20198;-80
2022/06/29 12:00:23;;;;;;;2.90;2.70;;;26.70;99.90;;;;;;5061869;28;20269;-81
2022/06/29 12:03:08;;;;;;;2.80;2.60;;;26.80;99.90;;;;;;5064470;28;20335;-80
2022/06/29 12:05:57;;;;;;;3.45;2.97;;;26.80;99.90;;;;;;5093252;28;20189;-82
2022/06/29 12:08:42;;;;;;;2.72;2.53;;;26.80;99.90;;;;;;5065624;28;20210;-79
2022/06/29 12:11:26;;;;;;;3.45;3.15;;;26.70;99.90;;;;;;5062293;28;20640;-80
2022/06/29 12:14:10;;;;;;;6.22;3.08;;;26.70;99.90;;;;;;5061476;28;20276;-80
2022/06/29 12:16:55;;;;;;;3.33;3.05;;;26.70;99.90;;;;;;5060462;28;20188;-80
2022/06/29 12:19:39;;;;;;;4.97;3.20;;;26.70;99.90;;;;;;5061007;28;20190;-80
2022/06/29 12:22:24;;;;;;;5.53;2.90;;;26.70;99.90;;;;;;5064712;28;20229;-81
2022/06/29 12:25:09;;;;;;;4.93;3.22;;;26.80;99.90;;;;;;5057895;28;20264;-80
2022/06/29 12:27:53;;;;;;;3.25;2.60;;;26.90;99.90;;;;;;5060741;28;20194;-82
2022/06/29 12:30:38;;;;;;;4.20;3.38;;;26.90;99.90;;;;;;5059000;28;20197;-80
2022/06/29 12:33:22;;;;;;;3.40;2.83;;;27.00;99.90;;;;;;5090291;27;20289;-80
2022/06/29 12:36:06;;;;;;;2.90;2.60;;;27.00;99.90;;;;;;5061222;28;20586;-80
2022/06/29 12:38:51;;;;;;;3.25;2.92;;;27.00;99.90;;;;;;5054332;28;20194;-83
2022/06/29 12:41:35;;;;;;;3.40;3.10;;;27.00;99.90;;;;;;5054002;28;20248;-80
2022/06/29 12:44:21;;;;;;;4.78;2.83;;;27.00;99.90;;;;;;5054869;28;20350;-79
2022/06/29 12:47:05;;;;;;;8.07;3.17;;;27.00;99.90;;;;;;5051922;28;20290;-80
2022/06/29 12:49:49;;;;;;;3.88;3.00;;;26.90;99.90;;;;;;5050123;28;20197;-80
2022/06/29 12:52:33;;;;;;;3.88;3.20;;;26.90;99.90;;;;;;5049970;28;20275;-79
2022/06/29 12:55:19;;;;;;;5.22;2.90;;;27.00;99.90;;;;;;5049364;28;20220;-81
2022/06/29 12:58:04;;;;;;;6.72;3.47;;;27.10;99.90;;;;;;5054576;28;20190;-80
2022/06/29 13:00:48;;;;;;;3.42;3.10;;;27.20;99.90;;;;;;5058910;28;20302;-82
2022/06/29 13:03:33;;;;;;;6.07;2.90;;;27.30;99.90;;;;;;5061922;28;20309;-79
2022/06/29 13:06:17;;;;;;;3.25;2.95;;;27.30;99.90;;;;;;5059875;28;20182;-79
2022/06/29 13:09:01;;;;;;;6.53;3.28;;;27.40;99.90;;;;;;5060007;28;20210;-79
2022/06/29 13:11:45;;;;;;;3.10;2.80;;;27.50;99.90;;;;;;5057241;28;20249;-79
2022/06/29 13:14:29;;;;;;;3.38;3.00;;;27.60;99.90;;;;;;5058781;28;20208;-79
2022/06/29 13:17:14;;;;;;;4.10;2.90;;;27.70;99.90;;;;;;5087438;28;20209;-79
2022/06/29 13:19:59;;;;;;;3.05;2.75;;;27.70;99.90;;;;;;5056699;28;20190;-80
2022/06/29 13:22:43;;;;;;;3.88;2.90;;;27.70;99.90;;;;;;5058239;28;20233;-79
2022/06/29 13:25:27;;;;;;;4.40;2.97;;;27.80;99.90;;;;;;5056752;28;20214;-79
2022/06/29 13:28:12;;;;;;;5.13;3.03;;;27.80;99.90;;;;;;5060232;28;20670;-79
2022/06/29 13:30:57;;;;;;;3.65;2.90;;;27.90;99.90;;;;;;5056728;28;20216;-79
2022/06/29 13:33:41;;;;;;;3.45;2.88;;;28.10;99.90;;;;;;5057012;28;20225;-77
2022/06/29 13:36:26;;;;;;;6.05;3.60;;;28.10;99.90;;;;;;5056366;28;20194;-80
2022/06/29 13:39:10;;;;;;;2.78;2.58;;;28.20;99.90;;;;;;5064437;28;20201;-77
2022/06/29 13:41:54;;;;;;;3.60;2.85;;;28.20;99.90;;;;;;5061493;28;20186;-77
2022/06/29 13:44:38;;;;;;;4.38;3.00;;;28.20;99.90;;;;;;5064502;28;20197;-77
2022/06/29 13:47:25;;;;;;;8.63;2.83;;;28.20;99.90;;;;;;5060717;28;20629;-76
2022/06/29 13:50:09;;;;;;;5.40;2.88;;;28.20;99.90;;;;;;5061357;28;20208;-77
2022/06/29 13:52:53;;;;;;;3.58;2.92;;;28.10;99.90;;;;;;5076023;28;20218;-77
2022/06/29 13:55:38;;;;;;;3.08;2.78;;;28.00;99.90;;;;;;5060882;28;20283;-76
2022/06/29 13:58:23;;;;;;;2.40;2.30;;;28.00;99.90;;;;;;5056671;28;20761;-76
2022/06/29 14:01:09;;;;;;;2.60;2.40;;;28.00;99.90;;;;;;5061251;28;20198;-76
2022/06/29 14:03:53;;;;;;;4.65;3.00;;;28.20;99.90;;;;;;5060550;28;20224;-76
2022/06/29 14:06:37;;;;;;;2.72;2.40;;;28.30;99.90;;;;;;5058045;28;20197;-75
2022/06/29 14:09:21;;;;;;;4.57;2.60;;;28.40;99.90;;;;;;5060916;28;20234;-75
2022/06/29 14:12:06;;;;;;;2.70;2.50;;;28.40;99.90;;;;;;5061619;28;20672;-75
2022/06/29 14:14:50;;;;;;;3.20;2.78;;;28.50;99.90;;;;;;5063785;28;20201;-76
2022/06/29 14:17:34;;;;;;;4.40;2.53;;;28.50;99.90;;;;;;5065894;28;20235;-76
2022/06/29 14:20:18;;;;;;;2.83;2.55;;;28.60;99.90;;;;;;5060327;28;20197;-76
2022/06/29 14:23:03;;;;;;;4.22;2.75;;;28.70;99.90;;;;;;5061542;28;20230;-76
2022/06/29 14:25:50;;;;;;;2.70;2.50;;;28.70;99.90;;;;;;5061738;28;20181;-76
2022/06/29 14:28:33;;;;;;;3.20;2.60;;;28.60;99.90;;;;;;5061927;28;20193;-77
2022/06/29 14:31:18;;;;;;;3.17;2.22;;;28.50;99.90;;;;;;5060718;28;20213;-77
2022/06/29 14:34:02;;;;;;;3.13;2.30;;;28.50;99.90;;;;;;5071751;28;20222;-75
2022/06/29 14:36:46;;;;;;;2.40;2.20;;;28.40;99.90;;;;;;5059748;28;20217;-76
2022/06/29 14:39:30;;;;;;;2.63;2.40;;;28.40;99.90;;;;;;5060932;28;20262;-76
2022/06/29 14:42:14;;;;;;;3.60;2.55;;;28.30;99.90;;;;;;5058297;28;20244;-76
2022/06/29 14:44:58;;;;;;;3.45;2.20;;;28.30;99.90;;;;;;5063680;28;20201;-77
2022/06/29 14:47:43;;;;;;;3.53;2.60;;;28.20;99.90;;;;;;5060684;28;20264;-75
2022/06/29 14:50:27;;;;;;;5.60;2.47;;;28.10;99.90;;;;;;5059166;28;20186;-76